Time;durP1;ratioP1;P1;durP2;ratioP2;P2;SDS_P1;SDS_P2;PMS_P1;PMS_P2;Temp;Humidity;BMP_temperature;BMP_pressure;BME280_temperature;BME280_humidity;BME280_pressure;Samples;Min_cycle;Max_cycle;Signal;HPM_P1;HPM_P2
2023/07/07 00:01:02;;;;;;;7.70;2.70;;;12.30;99.90;;;;;;5025453;28;20092;-56
2023/07/07 00:03:28;;;;;;;3.10;2.80;;;12.30;99.90;;;;;;5031188;28;20033;-56
2023/07/07 00:05:53;;;;;;;3.55;2.92;;;12.20;99.90;;;;;;5032740;28;20521;-56
2023/07/07 00:08:19;;;;;;;7.13;3.17;;;12.10;99.90;;;;;;5015459;28;20046;-57
2023/07/07 00:10:45;;;;;;;3.72;2.78;;;12.00;99.90;;;;;;5042782;28;20021;-57
2023/07/07 00:13:12;;;;;;;3.38;3.00;;;11.90;99.90;;;;;;5022333;28;20044;-56
2023/07/07 00:15:43;;;;;;;4.00;3.60;;;11.80;99.90;;;;;;5027271;28;20033;-58
2023/07/07 00:18:10;;;;;;;3.65;3.25;;;11.80;99.90;;;;;;5032197;28;20112;-57
2023/07/07 00:20:36;;;;;;;3.72;2.78;;;11.80;99.90;;;;;;5022577;28;20021;-57
2023/07/07 00:23:02;;;;;;;4.72;3.20;;;11.70;99.90;;;;;;5041779;28;20461;-55
2023/07/07 00:25:27;;;;;;;4.22;2.90;;;11.70;99.90;;;;;;5021232;28;20033;-57
2023/07/07 00:27:53;;;;;;;6.82;3.88;;;11.60;99.90;;;;;;5035010;28;20108;-55
2023/07/07 00:30:18;;;;;;;4.15;3.10;;;11.60;99.90;;;;;;5029067;28;20429;-56
2023/07/07 00:32:44;;;;;;;3.70;3.30;;;11.50;99.90;;;;;;5023507;28;20033;-56
2023/07/07 00:35:10;;;;;;;4.85;3.58;;;11.50;99.90;;;;;;5041078;28;21326;-55
2023/07/07 00:37:36;;;;;;;4.00;3.05;;;11.50;99.90;;;;;;5041430;28;20044;-57
2023/07/07 00:40:03;;;;;;;4.25;3.85;;;11.50;99.90;;;;;;5027839;28;20028;-56
2023/07/07 00:42:29;;;;;;;3.88;3.53;;;11.50;99.90;;;;;;5031790;28;20125;-55
2023/07/07 00:45:15;;;;;;;5.47;2.95;;;11.40;99.90;;;;;;5032384;28;20112;-55
2023/07/07 00:47:52;;;;;;;3.90;3.60;;;11.40;99.90;;;;;;5022704;28;20033;-55
2023/07/07 00:50:23;;;;;;;5.32;3.85;;;11.40;99.90;;;;;;5036896;28;20025;-57
2023/07/07 00:52:49;;;;;;;5.18;3.47;;;11.40;99.90;;;;;;5019161;28;20065;-55
2023/07/07 00:55:25;;;;;;;3.88;3.47;;;11.40;99.90;;;;;;5037473;28;20515;-56
2023/07/07 00:57:51;;;;;;;3.33;3.03;;;11.40;99.90;;;;;;5024402;28;20120;-57
2023/07/07 01:00:17;;;;;;;6.60;4.25;;;11.40;99.90;;;;;;5029484;28;20120;-56
2023/07/07 01:02:52;;;;;;;4.80;3.63;;;11.40;99.90;;;;;;5040068;28;20036;-54
2023/07/07 01:05:18;;;;;;;5.63;3.75;;;11.40;99.90;;;;;;5020761;28;20025;-55
2023/07/07 01:07:51;;;;;;;5.13;3.70;;;11.50;99.90;;;;;;5039026;28;20619;-56
2023/07/07 01:10:21;;;;;;;4.15;3.63;;;11.50;99.90;;;;;;5022125;28;20053;-56
2023/07/07 01:12:48;;;;;;;9.25;3.53;;;11.50;99.90;;;;;;5031019;28;20026;-56
2023/07/07 01:15:14;;;;;;;4.68;4.22;;;11.50;99.90;;;;;;5031818;28;20044;-57
2023/07/07 01:17:45;;;;;;;4.80;3.97;;;11.40;99.90;;;;;;5021549;28;20029;-57
2023/07/07 01:20:31;;;;;;;5.20;4.00;;;11.40;99.90;;;;;;5039101;28;20049;-55
2023/07/07 01:23:43;;;;;;;5.60;4.05;;;11.40;99.90;;;;;;5021322;28;20075;-56
2023/07/07 01:26:27;;;;;;;5.38;4.10;;;11.30;99.90;;;;;;5017338;28;20034;-56
2023/07/07 01:29:21;;;;;;;4.30;3.90;;;11.30;99.90;;;;;;5019882;28;20044;-55
2023/07/07 01:32:06;;;;;;;5.07;3.60;;;11.20;99.90;;;;;;5019113;28;20120;-56
2023/07/07 01:34:32;;;;;;;4.43;3.90;;;11.20;99.90;;;;;;5040362;28;20086;-56
2023/07/07 01:36:57;;;;;;;4.22;3.83;;;11.10;99.90;;;;;;5021223;28;20042;-54
2023/07/07 01:39:25;;;;;;;3.42;3.10;;;10.90;99.90;;;;;;5029256;28;20031;-57
2023/07/07 01:42:01;;;;;;;3.75;3.33;;;10.80;99.90;;;;;;5036099;28;20080;-56
2023/07/07 01:44:37;;;;;;;5.25;3.58;;;10.80;99.90;;;;;;5018295;28;20108;-56
2023/07/07 01:47:11;;;;;;;3.97;3.33;;;10.70;99.90;;;;;;5037581;28;20042;-57
2023/07/07 01:49:47;;;;;;;3.45;3.15;;;10.70;99.90;;;;;;5038119;28;20041;-56
2023/07/07 01:52:16;;;;;;;5.05;2.95;;;10.60;99.90;;;;;;5022760;28;20052;-55
2023/07/07 01:54:48;;;;;;;5.28;2.97;;;10.50;99.90;;;;;;5029827;28;20060;-56
2023/07/07 01:57:15;;;;;;;3.97;3.58;;;10.50;99.90;;;;;;5029230;28;20034;-56
2023/07/07 01:59:43;;;;;;;4.25;3.40;;;10.40;99.90;;;;;;5021059;28;20082;-56
2023/07/07 02:02:09;;;;;;;4.20;3.53;;;10.40;99.90;;;;;;5039778;28;20564;-55
2023/07/07 02:04:35;;;;;;;3.58;3.25;;;10.40;99.90;;;;;;5020180;28;20505;-56
2023/07/07 02:07:01;;;;;;;5.80;3.58;;;10.40;99.90;;;;;;5032712;28;20087;-56
2023/07/07 02:09:27;;;;;;;6.95;4.15;;;10.40;99.90;;;;;;5026703;28;20034;-56
2023/07/07 02:11:52;;;;;;;4.95;4.40;;;10.40;99.90;;;;;;5021767;28;20497;-57
2023/07/07 02:14:18;;;;;;;5.97;4.25;;;10.30;99.90;;;;;;5037137;28;20025;-56
2023/07/07 02:16:44;;;;;;;4.25;3.75;;;10.30;99.90;;;;;;5022393;28;20032;-57
2023/07/07 02:19:09;;;;;;;7.65;3.72;;;10.20;99.90;;;;;;5035932;28;20026;-55
2023/07/07 02:21:35;;;;;;;4.68;3.70;;;10.20;99.90;;;;;;5025611;28;20084;-57
2023/07/07 02:24:01;;;;;;;5.82;3.92;;;10.20;99.90;;;;;;5025864;28;20081;-56
2023/07/07 02:26:26;;;;;;;4.20;3.80;;;10.20;99.90;;;;;;5032991;28;20253;-55
2023/07/07 02:28:52;;;;;;;5.22;4.30;;;10.20;99.90;;;;;;5017484;28;20060;-55
2023/07/07 02:31:18;;;;;;;4.68;3.80;;;10.20;99.90;;;;;;5036858;28;20017;-56
2023/07/07 02:33:43;;;;;;;4.05;3.75;;;10.10;99.90;;;;;;5024091;28;20449;-55
2023/07/07 02:36:11;;;;;;;3.97;3.58;;;10.10;99.90;;;;;;5023778;28;20124;-56
2023/07/07 02:38:37;;;;;;;4.72;4.03;;;10.10;99.90;;;;;;5035135;28;20037;-56
2023/07/07 02:41:03;;;;;;;4.35;3.83;;;10.10;99.90;;;;;;5019422;28;20025;-56
2023/07/07 02:43:29;;;;;;;14.00;4.57;;;10.10;99.90;;;;;;5037193;28;20057;-55
2023/07/07 02:45:56;;;;;;;5.05;4.32;;;10.10;99.90;;;;;;5020891;28;20525;-55
2023/07/07 02:48:22;;;;;;;5.60;3.92;;;10.10;99.90;;;;;;5027717;28;20040;-57
2023/07/07 02:51:03;;;;;;;4.20;3.80;;;10.20;99.90;;;;;;5031781;28;20026;-56
2023/07/07 02:53:35;;;;;;;5.38;4.25;;;10.10;99.90;;;;;;5018507;28;20053;-55
2023/07/07 02:56:02;;;;;;;4.68;3.83;;;10.20;99.90;;;;;;5039686;28;20029;-56
2023/07/07 02:58:28;;;;;;;4.88;4.40;;;10.10;99.90;;;;;;5015779;28;20036;-55
2023/07/07 03:00:53;;;;;;;4.95;4.30;;;10.10;99.90;;;;;;5026886;28;20434;-56
2023/07/07 03:03:20;;;;;;;5.28;4.25;;;10.10;99.90;;;;;;5028350;28;20413;-57
2023/07/07 03:05:46;;;;;;;5.55;4.70;;;10.10;99.90;;;;;;5022501;28;20056;-56
2023/07/07 03:08:12;;;;;;;4.65;4.25;;;10.00;99.90;;;;;;5036259;28;20029;-55
2023/07/07 03:10:39;;;;;;;4.63;4.20;;;10.00;99.90;;;;;;5020070;28;20064;-56
2023/07/07 03:13:05;;;;;;;4.55;3.90;;;10.00;99.90;;;;;;5035718;28;20038;-57
2023/07/07 03:15:38;;;;;;;4.18;3.78;;;9.90;99.90;;;;;;5024943;28;20046;-56
2023/07/07 03:18:06;;;;;;;6.75;4.60;;;9.90;99.90;;;;;;5018750;28;20063;-57
2023/07/07 03:20:31;;;;;;;5.22;4.43;;;9.90;99.90;;;;;;5034802;28;20061;-56
2023/07/07 03:22:57;;;;;;;8.55;4.53;;;9.80;99.90;;;;;;5016604;28;20477;-55
2023/07/07 03:25:28;;;;;;;4.68;4.25;;;9.80;99.90;;;;;;5035993;28;20382;-56
2023/07/07 03:27:54;;;;;;;4.35;3.97;;;9.90;99.90;;;;;;5025005;28;20026;-56
2023/07/07 03:30:20;;;;;;;6.60;4.72;;;9.90;99.90;;;;;;5024382;28;20075;-58
2023/07/07 03:32:45;;;;;;;5.28;4.78;;;9.90;99.90;;;;;;5033748;28;20028;-59
2023/07/07 03:35:11;;;;;;;5.57;4.20;;;9.90;99.90;;;;;;5017877;28;20144;-58
2023/07/07 03:37:37;;;;;;;4.72;4.25;;;9.80;99.90;;;;;;5036786;28;20197;-58
2023/07/07 03:40:03;;;;;;;4.35;3.90;;;9.80;99.90;;;;;;5025616;28;20425;-58
2023/07/07 03:42:30;;;;;;;5.05;4.43;;;9.80;99.90;;;;;;5032574;28;20445;-59
2023/07/07 03:44:56;;;;;;;4.95;4.55;;;9.90;99.90;;;;;;5034134;28;20393;-58
2023/07/07 03:47:21;;;;;;;5.07;4.00;;;9.80;99.90;;;;;;5023223;28;20032;-57
2023/07/07 03:49:49;;;;;;;4.25;3.85;;;9.80;99.90;;;;;;5044284;28;20105;-58
2023/07/07 03:52:16;;;;;;;4.68;4.20;;;9.80;99.90;;;;;;5021864;28;20058;-58
2023/07/07 03:54:41;;;;;;;6.13;4.18;;;9.80;99.90;;;;;;5035615;28;20160;-59
2023/07/07 03:57:10;;;;;;;4.60;3.72;;;9.70;99.90;;;;;;5033937;28;20057;-59
2023/07/07 03:59:36;;;;;;;4.32;3.92;;;9.70;99.90;;;;;;5023214;28;20049;-57
2023/07/07 04:02:02;;;;;;;4.53;3.58;;;9.70;99.90;;;;;;5043057;28;20056;-58
2023/07/07 04:04:28;;;;;;;4.35;3.95;;;9.70;99.90;;;;;;5021198;28;20041;-59
2023/07/07 04:06:56;;;;;;;4.40;4.00;;;9.70;99.90;;;;;;5036584;28;20033;-58
2023/07/07 04:09:22;;;;;;;4.88;4.47;;;9.80;99.90;;;;;;5033536;28;20034;-59
2023/07/07 04:11:48;;;;;;;5.15;4.43;;;9.90;99.90;;;;;;5022266;28;20029;-57
2023/07/07 04:14:13;;;;;;;9.98;4.45;;;9.90;99.90;;;;;;5039123;28;20031;-58
2023/07/07 04:16:39;;;;;;;4.90;4.50;;;10.00;99.90;;;;;;5019155;28;20037;-59
2023/07/07 04:19:05;;;;;;;5.18;4.65;;;10.00;99.90;;;;;;5037515;28;20037;-57
2023/07/07 04:21:30;;;;;;;5.80;4.97;;;10.00;99.90;;;;;;5030496;28;20030;-57
2023/07/07 04:23:59;;;;;;;5.43;4.50;;;10.00;99.90;;;;;;5024813;28;20026;-59
2023/07/07 04:26:27;;;;;;;6.38;4.75;;;10.10;99.90;;;;;;5039742;28;20104;-59
2023/07/07 04:28:53;;;;;;;5.10;4.57;;;10.00;99.90;;;;;;5022112;28;20030;-58
2023/07/07 04:31:23;;;;;;;4.97;4.57;;;10.10;99.90;;;;;;5038229;28;20034;-60
2023/07/07 04:33:49;;;;;;;6.68;4.78;;;10.10;99.90;;;;;;5025828;28;20103;-58
2023/07/07 04:36:15;;;;;;;5.38;4.88;;;10.20;99.90;;;;;;5030459;28;20505;-58
2023/07/07 04:38:41;;;;;;;5.30;4.90;;;10.20;99.90;;;;;;5032020;28;20045;-58
2023/07/07 04:41:14;;;;;;;5.22;4.72;;;10.30;99.90;;;;;;5016382;28;20026;-60
2023/07/07 04:43:44;;;;;;;6.20;4.88;;;10.30;99.90;;;;;;5018855;28;20603;-59
2023/07/07 04:46:14;;;;;;;5.00;4.50;;;10.30;99.90;;;;;;5032711;28;20038;-59
2023/07/07 04:48:40;;;;;;;5.40;4.90;;;10.40;99.90;;;;;;5030556;28;20036;-59
2023/07/07 04:51:08;;;;;;;5.07;4.57;;;10.40;99.90;;;;;;5027169;28;20021;-57
2023/07/07 04:53:35;;;;;;;4.63;4.22;;;10.50;99.90;;;;;;5036257;28;20041;-56
2023/07/07 04:56:06;;;;;;;5.55;5.05;;;10.60;99.90;;;;;;5017941;28;20087;-59
2023/07/07 04:58:31;;;;;;;5.10;4.65;;;10.70;99.90;;;;;;5039232;28;20033;-58
2023/07/07 05:01:08;;;;;;;5.95;4.82;;;10.80;99.90;;;;;;5026363;28;20072;-59
2023/07/07 05:03:35;;;;;;;5.80;5.07;;;10.80;99.90;;;;;;5033277;28;20452;-58
2023/07/07 05:06:03;;;;;;;6.75;5.47;;;10.90;99.90;;;;;;5035502;28;20034;-58
2023/07/07 05:08:33;;;;;;;8.70;5.50;;;11.00;99.90;;;;;;5024513;28;20022;-59
2023/07/07 05:11:00;;;;;;;6.13;5.47;;;11.10;99.90;;;;;;5041732;28;20025;-59
2023/07/07 05:13:26;;;;;;;8.10;5.72;;;11.20;99.90;;;;;;5025126;28;20079;-58
2023/07/07 05:16:04;;;;;;;6.22;5.63;;;11.40;99.90;;;;;;5037326;28;20033;-56
2023/07/07 05:18:30;;;;;;;6.47;5.85;;;11.50;99.90;;;;;;5032384;28;20037;-57
2023/07/07 05:20:56;;;;;;;7.18;6.45;;;11.60;99.90;;;;;;5026372;28;20025;-55
2023/07/07 05:23:22;;;;;;;6.80;6.10;;;11.70;99.90;;;;;;5037852;28;20040;-57
2023/07/07 05:25:48;;;;;;;6.68;6.07;;;11.80;99.90;;;;;;5021594;28;20031;-56
2023/07/07 05:28:13;;;;;;;7.57;6.28;;;11.90;99.90;;;;;;5040646;28;20056;-57
2023/07/07 05:30:39;;;;;;;6.85;6.15;;;12.00;99.90;;;;;;5030856;28;20558;-56
2023/07/07 05:33:05;;;;;;;7.53;6.82;;;12.10;99.90;;;;;;5028860;28;20575;-57
2023/07/07 05:35:31;;;;;;;6.47;5.90;;;12.20;99.90;;;;;;5038457;28;20045;-56
2023/07/07 05:37:57;;;;;;;7.03;6.43;;;12.30;99.90;;;;;;5019619;28;20048;-57
2023/07/07 05:40:22;;;;;;;8.18;5.78;;;12.30;99.90;;;;;;5039537;28;20052;-57
2023/07/07 05:42:48;;;;;;;7.20;5.55;;;12.50;99.90;;;;;;5027596;28;20109;-57
2023/07/07 05:45:13;;;;;;;7.22;5.95;;;12.60;99.90;;;;;;5028862;28;20136;-56
2023/07/07 05:47:39;;;;;;;7.18;4.97;;;12.70;99.90;;;;;;5037888;28;20098;-56
2023/07/07 05:50:05;;;;;;;7.28;5.63;;;12.80;99.90;;;;;;5019511;28;20044;-57
2023/07/07 05:52:31;;;;;;;5.80;5.30;;;12.90;99.90;;;;;;5038852;28;20045;-56
2023/07/07 05:54:57;;;;;;;5.85;5.25;;;13.00;99.90;;;;;;5023778;28;20100;-57
2023/07/07 05:57:23;;;;;;;6.65;5.15;;;13.10;99.90;;;;;;5026579;28;20029;-56
2023/07/07 05:59:49;;;;;;;11.02;5.55;;;13.30;99.90;;;;;;5033892;28;20021;-55
2023/07/07 06:02:15;;;;;;;7.40;5.63;;;13.40;99.90;;;;;;5018675;28;20022;-55
2023/07/07 06:04:40;;;;;;;5.90;5.10;;;13.50;99.90;;;;;;5039515;28;20533;-56
2023/07/07 06:07:07;;;;;;;6.68;5.22;;;13.60;99.90;;;;;;5021861;28;20138;-57
2023/07/07 06:09:32;;;;;;;6.03;4.63;;;13.70;99.90;;;;;;5029980;28;20037;-57
2023/07/07 06:11:58;;;;;;;6.40;4.38;;;13.80;99.90;;;;;;5031716;28;20040;-56
2023/07/07 06:14:25;;;;;;;5.63;4.25;;;14.00;99.90;;;;;;5018063;28;20033;-56
2023/07/07 06:16:50;;;;;;;5.25;4.40;;;14.10;99.90;;;;;;5035638;28;20026;-57
2023/07/07 06:19:16;;;;;;;6.05;4.90;;;14.20;99.90;;;;;;5022193;28;20501;-58
2023/07/07 06:21:41;;;;;;;6.75;4.07;;;14.30;99.90;;;;;;5030514;28;20030;-56
2023/07/07 06:24:07;;;;;;;4.25;3.65;;;14.40;99.90;;;;;;5023736;28;20025;-57
2023/07/07 06:26:32;;;;;;;5.28;3.20;;;14.50;99.90;;;;;;5021397;28;20091;-55
2023/07/07 06:28:58;;;;;;;4.22;2.80;;;14.60;99.90;;;;;;5040446;28;20107;-56
2023/07/07 06:31:24;;;;;;;4.93;3.00;;;14.70;99.90;;;;;;5019004;28;20536;-57
2023/07/07 06:33:49;;;;;;;6.00;3.60;;;14.90;99.90;;;;;;5033924;28;20071;-58
2023/07/07 06:36:15;;;;;;;4.50;3.22;;;15.00;99.90;;;;;;5031371;28;20120;-57
2023/07/07 06:38:41;;;;;;;3.47;2.95;;;15.10;99.90;;;;;;5023396;28;20036;-57
2023/07/07 06:41:11;;;;;;;3.60;3.17;;;15.30;99.90;;;;;;5040042;28;20025;-55
2023/07/07 06:43:37;;;;;;;4.45;4.05;;;15.50;99.90;;;;;;5036903;28;20062;-58
2023/07/07 06:46:03;;;;;;;5.22;3.40;;;15.60;99.90;;;;;;5039931;28;20493;-56
2023/07/07 06:48:28;;;;;;;5.32;3.33;;;15.80;99.90;;;;;;5026496;28;20569;-57
2023/07/07 06:50:54;;;;;;;5.32;3.13;;;15.90;99.90;;;;;;5028833;28;20117;-58
2023/07/07 06:53:19;;;;;;;4.75;2.90;;;16.10;99.90;;;;;;5039627;28;20036;-58
2023/07/07 06:55:45;;;;;;;5.50;2.90;;;16.20;99.90;;;;;;5039108;28;20369;-57
2023/07/07 06:58:13;;;;;;;3.45;2.60;;;16.40;99.90;;;;;;5022070;28;20053;-58
2023/07/07 07:00:40;;;;;;;4.78;2.90;;;16.50;99.90;;;;;;5027367;28;20033;-57
2023/07/07 07:03:05;;;;;;;2.55;2.35;;;16.60;99.90;;;;;;5031344;28;20500;-57
2023/07/07 07:05:31;;;;;;;3.08;2.70;;;16.80;99.90;;;;;;5020623;28;20029;-57
2023/07/07 07:07:57;;;;;;;6.32;2.55;;;16.90;99.90;;;;;;5036417;28;20033;-56
2023/07/07 07:10:22;;;;;;;5.63;2.95;;;17.10;99.90;;;;;;5019557;28;20837;-57
2023/07/07 07:12:48;;;;;;;2.53;1.88;;;17.30;99.90;;;;;;5030409;28;20205;-57
2023/07/07 07:15:14;;;;;;;5.55;2.28;;;17.40;99.90;;;;;;5024317;28;20108;-57
2023/07/07 07:17:40;;;;;;;3.88;2.60;;;17.50;99.90;;;;;;5022461;28;20088;-57
2023/07/07 07:20:11;;;;;;;4.95;2.35;;;17.70;99.90;;;;;;5040124;28;20132;-57
2023/07/07 07:22:36;;;;;;;4.30;2.35;;;17.90;99.90;;;;;;5037477;28;20078;-56
2023/07/07 07:25:02;;;;;;;3.60;2.53;;;18.10;99.90;;;;;;5021785;28;20648;-56
2023/07/07 07:27:28;;;;;;;3.22;2.55;;;18.20;99.90;;;;;;5026088;28;20737;-56
2023/07/07 07:29:53;;;;;;;4.68;2.55;;;18.30;99.90;;;;;;5031562;28;20029;-56
2023/07/07 07:32:19;;;;;;;2.88;2.20;;;18.40;99.90;;;;;;5017134;28;20022;-57
2023/07/07 07:34:45;;;;;;;2.60;2.10;;;18.50;99.90;;;;;;5035799;28;20045;-57
2023/07/07 07:37:10;;;;;;;2.85;2.20;;;18.60;99.90;;;;;;5019275;28;20041;-57
2023/07/07 07:39:36;;;;;;;4.47;2.35;;;18.80;99.90;;;;;;5028368;28;20029;-57
2023/07/07 07:42:03;;;;;;;4.63;2.58;;;19.00;99.90;;;;;;5031351;28;20084;-57
2023/07/07 07:44:29;;;;;;;3.45;2.50;;;19.10;99.90;;;;;;5020313;28;20080;-57
2023/07/07 07:46:57;;;;;;;5.63;2.70;;;19.30;99.90;;;;;;5036821;28;20100;-57
2023/07/07 07:49:27;;;;;;;2.47;2.20;;;19.50;99.90;;;;;;5018877;28;20030;-56
2023/07/07 07:51:53;;;;;;;2.22;2.03;;;19.60;99.00;;;;;;5029204;28;20092;-56
2023/07/07 07:54:21;;;;;;;5.53;2.30;;;19.80;99.90;;;;;;5028296;28;20021;-57
2023/07/07 07:56:47;;;;;;;4.30;2.50;;;20.10;96.00;;;;;;5021517;28;20038;-58
2023/07/07 07:59:13;;;;;;;10.18;3.35;;;20.30;93.80;;;;;;5033575;28;20029;-58
2023/07/07 08:01:39;;;;;;;9.18;2.63;;;20.40;94.30;;;;;;5017474;28;20105;-56
2023/07/07 08:04:05;;;;;;;3.10;2.30;;;20.60;93.70;;;;;;5035095;28;20033;-57
2023/07/07 08:06:31;;;;;;;3.45;2.10;;;20.70;93.50;;;;;;5027251;28;20049;-56
2023/07/07 08:08:57;;;;;;;2.97;2.25;;;20.90;92.80;;;;;;5022868;28;20453;-57
2023/07/07 08:11:41;;;;;;;3.40;2.28;;;21.10;93.20;;;;;;5033843;28;20508;-58
2023/07/07 08:14:16;;;;;;;2.70;2.28;;;21.40;89.00;;;;;;5018425;28;20022;-58
2023/07/07 08:16:41;;;;;;;2.88;2.10;;;21.60;86.40;;;;;;5013414;28;20832;-57
2023/07/07 08:19:07;;;;;;;2.40;1.83;;;21.90;83.10;;;;;;5032330;28;20029;-58
2023/07/07 08:21:34;;;;;;;2.50;2.22;;;22.10;80.50;;;;;;5027740;28;20038;-58
2023/07/07 08:24:00;;;;;;;3.63;2.80;;;22.30;76.80;;;;;;5027754;28;20037;-56
2023/07/07 08:26:25;;;;;;;3.83;2.28;;;22.40;79.30;;;;;;5039659;28;20057;-57
2023/07/07 08:28:51;;;;;;;5.43;2.53;;;22.50;80.30;;;;;;5021823;28;20409;-58
2023/07/07 08:31:18;;;;;;;3.47;1.90;;;22.60;75.50;;;;;;5037679;28;20506;-57
2023/07/07 08:33:47;;;;;;;4.47;2.58;;;22.70;75.80;;;;;;5024216;28;20429;-56
2023/07/07 08:36:13;;;;;;;2.38;2.10;;;22.90;76.20;;;;;;5029041;28;20041;-57
2023/07/07 08:38:38;;;;;;;4.10;2.13;;;22.90;76.10;;;;;;5035652;28;20084;-57
2023/07/07 08:41:04;;;;;;;3.28;2.00;;;23.00;74.00;;;;;;5020320;28;20119;-58
2023/07/07 08:43:31;;;;;;;2.95;2.00;;;23.20;70.80;;;;;;5040136;28;20037;-58
2023/07/07 08:46:16;;;;;;;2.40;2.20;;;23.30;72.70;;;;;;5025696;28;20117;-57
2023/07/07 08:48:45;;;;;;;3.50;2.00;;;23.40;74.60;;;;;;5034736;28;20032;-59
2023/07/07 08:51:18;;;;;;;2.50;2.30;;;23.40;70.80;;;;;;5030569;28;20030;-57
2023/07/07 08:54:03;;;;;;;2.92;2.13;;;23.50;70.10;;;;;;5025863;28;20067;-57
2023/07/07 08:56:32;;;;;;;2.83;2.13;;;23.50;67.90;;;;;;5033160;28;20401;-57
2023/07/07 08:59:03;;;;;;;3.75;2.10;;;23.70;70.50;;;;;;5018827;28;20072;-58
2023/07/07 09:01:35;;;;;;;3.92;2.33;;;23.80;70.30;;;;;;5037520;28;20540;-58
2023/07/07 09:04:10;;;;;;;3.60;2.58;;;23.90;68.20;;;;;;5023227;28;20029;-56
2023/07/07 09:06:58;;;;;;;2.03;1.85;;;23.90;68.90;;;;;;5031732;28;20040;-56
2023/07/07 09:10:01;;;;;;;2.85;2.58;;;24.00;69.30;;;;;;5028006;28;20018;-57
2023/07/07 09:12:36;;;;;;;4.28;2.53;;;24.30;69.90;;;;;;5026683;28;20071;-57
2023/07/07 09:15:12;;;;;;;3.28;2.28;;;24.50;65.80;;;;;;5032445;28;20018;-57
2023/07/07 09:17:43;;;;;;;3.03;2.15;;;24.60;65.50;;;;;;5025951;28;20167;-57
2023/07/07 09:20:13;;;;;;;5.57;2.67;;;24.70;65.00;;;;;;5040113;28;20698;-56
2023/07/07 09:22:52;;;;;;;3.10;2.17;;;24.80;63.20;;;;;;5036558;28;20041;-57
2023/07/07 09:25:35;;;;;;;3.88;2.30;;;24.90;62.10;;;;;;5020326;28;20034;-58
2023/07/07 09:28:05;;;;;;;2.88;2.40;;;25.00;63.70;;;;;;5034482;28;20041;-57
2023/07/07 09:30:34;;;;;;;3.28;2.28;;;25.10;62.90;;;;;;5027029;28;20057;-58
2023/07/07 09:33:00;;;;;;;4.95;2.65;;;25.30;58.20;;;;;;5025226;28;20511;-56
2023/07/07 09:35:40;;;;;;;2.95;2.38;;;25.50;57.60;;;;;;5037659;28;20032;-58
2023/07/07 09:38:24;;;;;;;6.50;2.42;;;25.70;56.70;;;;;;5020723;28;20545;-57
2023/07/07 09:41:03;;;;;;;3.08;2.10;;;25.80;54.10;;;;;;5020154;28;20035;-58
2023/07/07 09:43:42;;;;;;;3.60;2.33;;;26.10;53.40;;;;;;5039503;28;20056;-58
2023/07/07 09:46:39;;;;;;;3.60;2.63;;;26.20;53.50;;;;;;5023668;28;20046;-57
2023/07/07 09:49:35;;;;;;;4.70;2.60;;;26.40;52.10;;;;;;5019336;28;20040;-56
2023/07/07 09:52:09;;;;;;;3.83;2.85;;;26.60;50.90;;;;;;5016024;28;20065;-59
2023/07/07 09:54:36;;;;;;;4.35;2.53;;;26.90;49.00;;;;;;5028661;28;20087;-58
2023/07/07 09:57:31;;;;;;;2.95;2.53;;;27.20;50.40;;;;;;5031243;28;20037;-58
2023/07/07 09:59:59;;;;;;;3.58;2.47;;;27.30;49.70;;;;;;5017964;28;20537;-57
2023/07/07 10:02:25;;;;;;;2.95;2.22;;;27.50;50.00;;;;;;5014843;28;20482;-58
2023/07/07 10:04:59;;;;;;;3.00;2.45;;;27.80;48.60;;;;;;5017772;28;20383;-58
2023/07/07 10:07:26;;;;;;;2.72;2.53;;;28.00;48.30;;;;;;5035309;28;20037;-58
2023/07/07 10:09:52;;;;;;;3.25;2.55;;;28.20;48.00;;;;;;5027217;28;20504;-58
2023/07/07 10:12:18;;;;;;;2.38;2.15;;;28.30;48.00;;;;;;5020600;28;20045;-59
2023/07/07 10:14:45;;;;;;;2.75;2.50;;;28.40;47.10;;;;;;5015355;28;20041;-58
2023/07/07 10:17:14;;;;;;;2.45;2.03;;;28.30;46.20;;;;;;5016875;28;20037;-58
2023/07/07 10:19:53;;;;;;;3.20;2.90;;;28.30;47.40;;;;;;5018352;28;20028;-58
2023/07/07 10:22:20;;;;;;;3.53;2.17;;;28.30;47.50;;;;;;5036795;28;20438;-58
2023/07/07 10:24:46;;;;;;;5.60;2.53;;;28.20;47.20;;;;;;5025695;28;20394;-59
2023/07/07 10:27:15;;;;;;;3.17;2.10;;;28.10;47.00;;;;;;5025879;28;20057;-57
2023/07/07 10:29:42;;;;;;;3.25;2.42;;;28.00;47.40;;;;;;5033123;28;20141;-58
2023/07/07 10:32:26;;;;;;;4.07;2.80;;;27.90;46.60;;;;;;5022660;28;20028;-58
2023/07/07 10:34:56;;;;;;;3.38;2.50;;;27.90;47.70;;;;;;5016145;28;20062;-58
2023/07/07 10:37:24;;;;;;;4.53;2.30;;;27.80;46.40;;;;;;5038409;28;20124;-58
2023/07/07 10:39:52;;;;;;;2.80;2.28;;;27.80;47.40;;;;;;5023817;28;20026;-59
2023/07/07 10:42:20;;;;;;;3.20;2.47;;;27.80;48.10;;;;;;5024373;28;20033;-59
2023/07/07 10:44:46;;;;;;;3.78;2.50;;;27.80;47.20;;;;;;5031101;28;20050;-57
2023/07/07 10:47:15;;;;;;;2.50;2.30;;;27.90;46.90;;;;;;5018200;28;20501;-57
2023/07/07 10:49:41;;;;;;;2.80;2.47;;;27.90;47.10;;;;;;5035722;28;20029;-58
2023/07/07 10:52:21;;;;;;;3.17;2.30;;;28.00;46.00;;;;;;5027416;28;20033;-58
2023/07/07 10:55:34;;;;;;;2.97;2.67;;;27.90;45.70;;;;;;5028669;28;20053;-58
2023/07/07 10:58:22;;;;;;;3.63;2.75;;;27.90;45.50;;;;;;5015535;28;20030;-57
2023/07/07 11:01:16;;;;;;;3.45;2.65;;;28.00;47.70;;;;;;5010274;28;20025;-58
2023/07/07 11:04:16;;;;;;;2.83;2.55;;;28.00;44.90;;;;;;5020576;28;20044;-58
2023/07/07 11:07:08;;;;;;;2.85;2.47;;;28.10;45.00;;;;;;5027062;28;20611;-58
2023/07/07 11:09:56;;;;;;;3.22;2.30;;;28.00;44.50;;;;;;5027565;28;20684;-57
2023/07/07 11:12:49;;;;;;;3.28;2.60;;;28.10;46.20;;;;;;5026484;28;20063;-57
2023/07/07 11:15:45;;;;;;;5.32;2.38;;;28.20;45.20;;;;;;5030170;28;20029;-57
2023/07/07 11:18:20;;;;;;;3.55;2.35;;;28.30;46.50;;;;;;5025723;28;20036;-59
2023/07/07 11:20:57;;;;;;;2.50;2.30;;;28.50;46.40;;;;;;5036186;28;20026;-58
2023/07/07 11:24:05;;;;;;;5.05;2.28;;;28.70;47.10;;;;;;5022621;28;20393;-58
2023/07/07 11:27:02;;;;;;;2.97;2.28;;;28.90;45.30;;;;;;5033904;28;20095;-58
2023/07/07 11:30:08;;;;;;;5.00;2.45;;;29.00;44.80;;;;;;5015700;28;20038;-57
2023/07/07 11:32:39;;;;;;;3.13;2.20;;;29.00;45.10;;;;;;5034411;28;20486;-59
2023/07/07 11:35:33;;;;;;;2.60;2.28;;;29.10;44.10;;;;;;5016384;28;20050;-58
2023/07/07 11:38:02;;;;;;;3.47;2.72;;;29.10;45.70;;;;;;5017860;28;20038;-58
2023/07/07 11:40:39;;;;;;;2.90;2.50;;;29.20;44.20;;;;;;5036016;28;20039;-58
2023/07/07 11:43:23;;;;;;;2.60;2.10;;;29.10;45.00;;;;;;5020943;28;20402;-57
2023/07/07 11:46:13;;;;;;;3.47;2.45;;;29.20;44.40;;;;;;5032133;28;20032;-57
2023/07/07 11:48:49;;;;;;;2.53;2.33;;;29.20;44.10;;;;;;5024405;28;20079;-57
2023/07/07 11:51:35;;;;;;;2.38;2.13;;;29.20;44.70;;;;;;5021393;28;20029;-57
2023/07/07 11:54:06;;;;;;;5.38;2.35;;;29.20;43.60;;;;;;5028924;28;20033;-58
2023/07/07 11:56:47;;;;;;;4.95;2.47;;;29.20;44.60;;;;;;5024198;28;20095;-58
2023/07/07 12:00:10;;;;;;;3.80;2.88;;;29.20;43.10;;;;;;5037102;28;20030;-57
2023/07/07 12:02:44;;;;;;;4.60;2.67;;;28.90;42.50;;;;;;4992543;28;20228;-58
2023/07/07 12:05:13;;;;;;;3.40;2.38;;;28.80;42.80;;;;;;5008542;28;20048;-57
2023/07/07 12:07:51;;;;;;;3.35;2.67;;;28.70;44.40;;;;;;5013185;28;20055;-58
2023/07/07 12:10:19;;;;;;;4.28;2.90;;;28.70;44.00;;;;;;5022579;28;20033;-56
2023/07/07 12:13:09;;;;;;;4.07;2.63;;;28.70;43.90;;;;;;5016853;28;20026;-59
2023/07/07 12:15:43;;;;;;;4.00;2.78;;;28.80;44.40;;;;;;5031717;28;20775;-58
2023/07/07 12:18:17;;;;;;;4.43;2.63;;;28.90;45.20;;;;;;5027796;28;20034;-58
2023/07/07 12:20:49;;;;;;;4.95;2.72;;;29.20;43.70;;;;;;5025600;28;20116;-58
2023/07/07 12:23:21;;;;;;;5.13;2.22;;;29.30;44.60;;;;;;5040327;28;20048;-58
2023/07/07 12:25:46;;;;;;;3.83;2.72;;;29.40;42.80;;;;;;5020034;28;20037;-58
2023/07/07 12:28:13;;;;;;;5.18;3.05;;;29.50;42.00;;;;;;5036338;28;20183;-58
2023/07/07 12:30:45;;;;;;;5.22;2.58;;;29.50;42.80;;;;;;5024749;28;20425;-58
2023/07/07 12:33:13;;;;;;;2.50;2.30;;;29.70;43.10;;;;;;5025688;28;20029;-58
2023/07/07 12:35:47;;;;;;;3.00;2.17;;;29.80;43.40;;;;;;5034861;28;20054;-58
2023/07/07 12:38:21;;;;;;;3.08;2.20;;;29.80;42.20;;;;;;5019704;28;20074;-58
2023/07/07 12:40:48;;;;;;;3.65;2.13;;;29.90;41.10;;;;;;5040607;28;20136;-59
2023/07/07 12:43:40;;;;;;;2.75;2.53;;;29.70;42.80;;;;;;5023694;28;20576;-58
2023/07/07 12:46:22;;;;;;;3.97;2.30;;;29.70;42.10;;;;;;5037445;28;20094;-58
2023/07/07 12:48:49;;;;;;;4.78;2.28;;;29.70;42.40;;;;;;5025202;28;20037;-57
2023/07/07 12:51:17;;;;;;;2.75;2.08;;;29.70;41.70;;;;;;5027236;28;20525;-57
2023/07/07 12:53:51;;;;;;;2.60;2.08;;;29.80;42.90;;;;;;5036471;28;20038;-58
2023/07/07 12:56:20;;;;;;;4.07;2.60;;;29.80;41.60;;;;;;5021953;28;20121;-57
2023/07/07 12:58:50;;;;;;;4.28;2.50;;;29.80;42.10;;;;;;5041410;28;20033;-58
2023/07/07 13:01:15;;;;;;;4.45;2.55;;;29.90;43.50;;;;;;5020347;28;20021;-59
2023/07/07 13:04:07;;;;;;;3.35;2.38;;;30.10;43.10;;;;;;5032175;28;20044;-59
2023/07/07 13:06:37;;;;;;;3.15;2.50;;;30.20;41.80;;;;;;5025587;28;20083;-58